createdAt,value
2024-01-16T00:00:34.781Z,94.70
2024-01-16T00:03:03.255Z,94.80
2024-01-16T00:05:31.707Z,94.80
2024-01-16T00:08:02.177Z,95.00
2024-01-16T00:10:30.575Z,94.90
2024-01-16T00:12:58.900Z,95.00
2024-01-16T00:15:27.294Z,95.10
2024-01-16T00:17:55.956Z,95.20
2024-01-16T00:20:25.751Z,95.30
2024-01-16T00:22:54.192Z,95.40
2024-01-16T00:25:22.724Z,95.40
2024-01-16T00:27:51.031Z,95.40
2024-01-16T00:30:20.245Z,95.40
2024-01-16T00:32:49.227Z,95.50
2024-01-16T00:35:18.019Z,95.60
2024-01-16T00:37:46.411Z,95.60
2024-01-16T00:40:14.968Z,95.60
2024-01-16T00:42:43.871Z,95.60
2024-01-16T00:45:12.195Z,95.70
2024-01-16T00:47:40.632Z,95.70
2024-01-16T00:50:09.459Z,95.70
2024-01-16T00:52:37.816Z,95.80
2024-01-16T00:55:07.476Z,95.80
2024-01-16T00:57:35.852Z,95.90
2024-01-16T01:00:06.213Z,95.80
2024-01-16T01:02:34.631Z,95.80
2024-01-16T01:05:03.111Z,95.90
2024-01-16T01:07:31.592Z,95.90
2024-01-16T01:10:00.146Z,95.90
2024-01-16T01:12:28.646Z,95.80
2024-01-16T01:14:57.158Z,95.80
2024-01-16T01:17:25.598Z,95.80
2024-01-16T01:19:54.016Z,96.00
2024-01-16T01:22:22.407Z,95.90
2024-01-16T01:24:50.748Z,95.80
2024-01-16T01:27:19.092Z,95.70
2024-01-16T01:29:47.489Z,95.70
2024-01-16T01:32:15.903Z,95.60
2024-01-16T01:34:44.970Z,95.50
2024-01-16T01:37:13.360Z,95.50
2024-01-16T01:39:42.022Z,95.40
2024-01-16T01:42:10.477Z,95.70
2024-01-16T01:44:38.944Z,95.40
2024-01-16T01:47:08.344Z,95.40
2024-01-16T01:49:38.674Z,95.40
2024-01-16T01:52:08.371Z,95.50
2024-01-16T01:54:39.629Z,95.30
2024-01-16T01:57:10.981Z,95.30
2024-01-16T01:59:44.944Z,95.20
2024-01-16T02:02:14.639Z,95.10
2024-01-16T02:04:46.249Z,95.10
2024-01-16T02:07:16.657Z,95.10
2024-01-16T02:09:46.114Z,95.10
2024-01-16T02:12:14.762Z,95.10
2024-01-16T02:14:43.894Z,95.30
2024-01-16T02:17:12.864Z,95.40
2024-01-16T02:19:41.418Z,95.40
2024-01-16T02:22:23.807Z,95.30
2024-01-16T02:24:52.717Z,95.20
2024-01-16T02:27:21.049Z,95.20
2024-01-16T02:29:51.870Z,95.20
2024-01-16T02:32:20.571Z,95.20
2024-01-16T02:34:49.096Z,95.20
2024-01-16T02:37:17.468Z,95.30
2024-01-16T02:39:45.850Z,95.30
2024-01-16T02:42:14.317Z,95.40
2024-01-16T02:44:43.414Z,95.40
2024-01-16T02:47:11.982Z,95.50
2024-01-16T02:49:42.451Z,95.90
2024-01-16T02:52:10.872Z,95.70
2024-01-16T02:54:39.256Z,95.80
2024-01-16T02:57:07.617Z,95.90
2024-01-16T02:59:36.015Z,95.90
2024-01-16T03:02:05.138Z,95.90
2024-01-16T03:04:34.014Z,95.90
2024-01-16T03:07:02.396Z,96.00
2024-01-16T03:09:30.830Z,96.00
2024-01-16T03:12:00.121Z,96.00
2024-01-16T03:14:28.463Z,95.80
2024-01-16T03:16:56.785Z,95.70
2024-01-16T03:19:25.143Z,95.60
2024-01-16T03:21:53.480Z,95.40
2024-01-16T03:24:22.346Z,95.30
2024-01-16T03:26:50.714Z,95.30
2024-01-16T03:29:19.120Z,95.30
2024-01-16T03:31:47.523Z,95.30
2024-01-16T03:34:16.152Z,95.40
2024-01-16T03:36:44.680Z,95.30
2024-01-16T03:39:14.277Z,95.20
2024-01-16T03:41:42.674Z,95.10
2024-01-16T03:44:11.108Z,95.00
2024-01-16T03:46:39.548Z,94.90
2024-01-16T03:49:07.968Z,94.90
2024-01-16T03:51:36.423Z,95.00
2024-01-16T03:54:05.240Z,95.00
2024-01-16T03:56:33.705Z,95.10
2024-01-16T03:59:02.067Z,95.00
2024-01-16T04:01:39.167Z,95.00
2024-01-16T04:04:08.995Z,95.10
2024-01-16T04:06:37.654Z,95.00
2024-01-16T04:09:06.999Z,95.00
2024-01-16T04:11:35.363Z,95.00
2024-01-16T04:14:04.225Z,95.00
2024-01-16T04:16:32.547Z,95.10
2024-01-16T04:19:01.710Z,95.10
2024-01-16T04:21:30.046Z,95.10
2024-01-16T04:23:58.386Z,95.10
2024-01-16T04:26:27.234Z,95.10
2024-01-16T04:28:55.633Z,95.10
2024-01-16T04:31:24.607Z,95.20
2024-01-16T04:33:53.113Z,95.20
2024-01-16T04:36:21.507Z,95.20
2024-01-16T04:38:49.877Z,95.20
2024-01-16T04:41:21.875Z,95.20
2024-01-16T04:43:52.100Z,95.30
2024-01-16T04:46:20.503Z,95.20
2024-01-16T04:48:49.120Z,95.20
2024-01-16T04:51:17.582Z,95.20
2024-01-16T04:53:46.087Z,95.20
2024-01-16T04:56:14.607Z,95.30
2024-01-16T04:58:43.514Z,95.30
2024-01-16T05:01:11.941Z,95.30
2024-01-16T05:03:40.343Z,95.30
2024-01-16T05:06:17.216Z,95.30
2024-01-16T05:08:45.960Z,95.50
2024-01-16T05:11:14.353Z,95.40
2024-01-16T05:13:42.736Z,95.50
2024-01-16T05:16:12.387Z,95.50
2024-01-16T05:18:44.509Z,95.60
2024-01-16T05:21:13.004Z,95.60
2024-01-16T05:23:41.383Z,95.60
2024-01-16T05:26:09.826Z,95.60
2024-01-16T05:28:38.179Z,95.60
2024-01-16T05:31:06.732Z,95.70
2024-01-16T05:33:35.161Z,96.00
2024-01-16T05:36:04.547Z,95.90
2024-01-16T05:38:32.994Z,95.90
2024-01-16T05:41:01.355Z,95.80
2024-01-16T05:43:31.098Z,95.60
2024-01-16T05:45:59.410Z,95.50
2024-01-16T05:48:30.299Z,95.20
2024-01-16T05:50:58.762Z,95.10
2024-01-16T05:53:27.197Z,95.10
2024-01-16T05:55:56.844Z,95.10
2024-01-16T05:58:25.349Z,95.10
2024-01-16T06:00:53.735Z,95.10
2024-01-16T06:03:22.578Z,95.10
2024-01-16T06:05:51.104Z,95.10
2024-01-16T06:08:19.526Z,95.30
2024-01-16T06:10:48.413Z,95.40
2024-01-16T06:13:16.720Z,95.40
2024-01-16T06:15:45.075Z,95.30
2024-01-16T06:18:13.534Z,95.20
2024-01-16T06:20:42.150Z,95.20
2024-01-16T06:23:10.605Z,95.20
2024-01-16T06:25:38.948Z,95.20
2024-01-16T06:28:09.578Z,95.20
2024-01-16T06:30:37.983Z,95.20
2024-01-16T06:33:07.172Z,95.20
2024-01-16T06:35:35.675Z,95.20
2024-01-16T06:38:04.786Z,95.20
2024-01-16T06:40:33.191Z,95.30
2024-01-16T06:43:01.508Z,95.30
2024-01-16T06:45:29.841Z,95.40
2024-01-16T06:47:58.427Z,95.40
2024-01-16T06:50:26.937Z,95.50
2024-01-16T06:52:55.305Z,95.50
2024-01-16T06:55:23.637Z,95.50
2024-01-16T06:57:52.004Z,95.40
2024-01-16T07:00:20.611Z,95.40
2024-01-16T07:02:49.048Z,95.30
2024-01-16T07:05:17.582Z,95.30
2024-01-16T07:07:46.233Z,95.40
2024-01-16T07:10:20.309Z,95.50
2024-01-16T07:12:49.455Z,95.50
2024-01-16T07:15:18.067Z,95.50
2024-01-16T07:17:46.621Z,95.70
2024-01-16T07:20:15.239Z,95.70
2024-01-16T07:22:43.625Z,95.80
2024-01-16T07:25:12.015Z,95.60
2024-01-16T07:27:40.458Z,95.50
2024-01-16T07:30:09.916Z,95.50
2024-01-16T07:32:38.577Z,95.40
2024-01-16T07:35:07.690Z,95.40
2024-01-16T07:37:36.131Z,95.30
2024-01-16T07:40:08.084Z,95.20
2024-01-16T07:42:36.621Z,95.40
2024-01-16T07:45:06.831Z,95.30
2024-01-16T07:47:35.750Z,95.20
2024-01-16T07:50:07.573Z,95.20
2024-01-16T07:52:36.985Z,95.20
2024-01-16T07:55:05.896Z,95.40
2024-01-16T07:57:34.320Z,95.40
2024-01-16T08:00:02.752Z,95.30
2024-01-16T08:02:36.301Z,95.20
2024-01-16T08:05:05.184Z,95.20
2024-01-16T08:07:33.894Z,95.10
2024-01-16T08:10:02.278Z,95.00
2024-01-16T08:12:30.763Z,95.00
2024-01-16T08:14:59.206Z,95.00
2024-01-16T08:17:27.643Z,95.00
2024-01-16T08:19:55.992Z,94.90
2024-01-16T08:22:24.329Z,95.00
2024-01-16T08:24:52.745Z,94.90
2024-01-16T08:27:22.193Z,94.80
2024-01-16T08:29:53.263Z,94.80
2024-01-16T08:32:21.872Z,94.90
2024-01-16T08:34:50.367Z,94.90
2024-01-16T08:37:18.741Z,94.80
2024-01-16T08:39:47.070Z,94.80
2024-01-16T08:42:15.442Z,94.70
2024-01-16T08:44:43.814Z,94.70
2024-01-16T08:47:12.301Z,94.80
2024-01-16T08:49:40.934Z,94.80
2024-01-16T08:52:09.421Z,94.80
2024-01-16T08:54:37.757Z,94.80
2024-01-16T08:57:06.637Z,94.70
2024-01-16T08:59:35.044Z,94.70
2024-01-16T09:02:03.399Z,94.60
2024-01-16T09:04:31.812Z,94.70
2024-01-16T09:07:00.387Z,94.70
2024-01-16T09:09:28.833Z,94.70
2024-01-16T09:11:57.199Z,94.70
2024-01-16T09:14:25.587Z,94.60
2024-01-16T09:16:55.598Z,94.60
2024-01-16T09:19:24.063Z,94.70
2024-01-16T09:21:52.479Z,94.50
2024-01-16T09:24:21.238Z,94.40
2024-01-16T09:26:49.945Z,94.40
2024-01-16T09:29:18.525Z,94.30
2024-01-16T09:31:46.980Z,94.20
2024-01-16T09:34:16.232Z,94.10
2024-01-16T09:36:45.028Z,94.10
2024-01-16T09:39:14.667Z,94.00
2024-01-16T09:41:44.923Z,93.90
2024-01-16T09:44:13.723Z,93.90
2024-01-16T09:46:48.629Z,94.00
2024-01-16T09:49:20.051Z,94.00
2024-01-16T09:51:48.978Z,93.90
2024-01-16T09:54:17.958Z,93.80
2024-01-16T09:56:54.135Z,93.80
2024-01-16T09:59:24.766Z,93.80
2024-01-16T10:01:57.538Z,93.80
2024-01-16T10:04:25.986Z,93.70
2024-01-16T10:06:58.597Z,93.60
2024-01-16T10:09:27.654Z,93.50
2024-01-16T10:11:57.125Z,93.60
2024-01-16T10:14:26.892Z,93.60
2024-01-16T10:17:12.263Z,93.70
2024-01-16T10:19:54.893Z,93.70
2024-01-16T10:22:27.608Z,93.40
2024-01-16T10:25:18.770Z,93.40
2024-01-16T10:27:47.103Z,93.30
2024-01-16T10:30:16.597Z,93.20
2024-01-16T10:32:45.987Z,93.30
2024-01-16T10:35:16.690Z,93.20
2024-01-16T10:37:47.796Z,93.10
2024-01-16T10:40:24.499Z,93.00
2024-01-16T10:43:07.277Z,92.70
2024-01-16T10:45:36.379Z,92.50
2024-01-16T10:48:09.749Z,92.70
2024-01-16T10:50:40.920Z,92.60
2024-01-16T10:53:10.946Z,92.60
2024-01-16T10:55:54.098Z,92.30
2024-01-16T10:58:26.134Z,92.20
2024-01-16T11:00:59.433Z,92.10
2024-01-16T11:03:55.912Z,92.10
2024-01-16T11:06:24.725Z,92.20
2024-01-16T11:08:55.611Z,92.20
2024-01-16T11:11:25.907Z,92.10
2024-01-16T11:13:56.794Z,91.60
2024-01-16T11:16:26.329Z,91.80
2024-01-16T11:18:56.420Z,91.80
2024-01-16T11:21:27.738Z,91.90
2024-01-16T11:23:56.165Z,91.90
2024-01-16T11:26:36.116Z,91.80
2024-01-16T11:29:30.314Z,91.70
2024-01-16T11:32:13.817Z,91.70
2024-01-16T11:34:57.277Z,91.60
2024-01-16T11:37:35.065Z,91.70
2024-01-16T11:40:23.860Z,91.60
2024-01-16T11:42:55.522Z,91.70
2024-01-16T11:45:29.863Z,91.90
2024-01-16T11:48:15.478Z,92.10
2024-01-16T11:50:45.984Z,92.00
2024-01-16T11:53:42.840Z,92.00
2024-01-16T11:57:03.789Z,92.00
2024-01-16T12:00:14.787Z,92.00
2024-01-16T12:02:58.651Z,92.00
2024-01-16T12:05:27.131Z,92.10
2024-01-16T12:07:57.119Z,92.30
2024-01-16T12:10:27.452Z,92.20
2024-01-16T12:13:04.598Z,92.40
2024-01-16T12:15:34.196Z,92.50
2024-01-16T12:18:16.503Z,92.50
2024-01-16T12:20:51.846Z,92.50
2024-01-16T12:23:20.960Z,92.50
2024-01-16T12:26:01.757Z,92.60
2024-01-16T12:28:33.954Z,92.70
2024-01-16T12:31:03.147Z,92.90
2024-01-16T12:33:32.829Z,92.80
2024-01-16T12:36:06.985Z,92.70
2024-01-16T12:38:35.759Z,92.80
2024-01-16T12:41:11.007Z,92.70
2024-01-16T12:43:39.603Z,92.60
2024-01-16T12:46:08.977Z,92.70
2024-01-16T12:48:41.551Z,92.80
2024-01-16T12:51:14.781Z,92.80
2024-01-16T12:53:43.296Z,92.90
2024-01-16T12:56:13.034Z,92.80
2024-01-16T12:58:42.684Z,92.90
2024-01-16T13:01:39.077Z,93.00
2024-01-16T13:04:09.639Z,92.90
2024-01-16T13:06:38.611Z,92.90
2024-01-16T13:09:18.294Z,92.90
2024-01-16T13:11:57.699Z,92.90
2024-01-16T13:14:27.380Z,92.90
2024-01-16T13:16:59.286Z,92.90
2024-01-16T13:19:27.924Z,92.90
2024-01-16T13:21:56.335Z,93.10
2024-01-16T13:24:25.782Z,93.10
2024-01-16T13:26:54.301Z,93.00
2024-01-16T13:29:22.916Z,93.20
2024-01-16T13:31:57.017Z,93.10
2024-01-16T13:34:27.255Z,93.00
2024-01-16T13:37:15.141Z,92.90
2024-01-16T13:39:44.965Z,92.70
2024-01-16T13:42:13.343Z,92.70
2024-01-16T13:44:41.790Z,92.70
2024-01-16T13:47:13.573Z,92.70
2024-01-16T13:49:44.723Z,92.70
2024-01-16T13:52:13.328Z,92.80
2024-01-16T13:54:41.709Z,92.80
2024-01-16T13:57:12.038Z,92.70
2024-01-16T13:59:42.900Z,92.80
2024-01-16T14:02:11.716Z,92.90
2024-01-16T14:04:40.114Z,93.00
2024-01-16T14:07:13.166Z,93.00
2024-01-16T14:09:45.240Z,93.00
2024-01-16T14:12:15.962Z,93.00
2024-01-16T14:14:44.898Z,93.00
2024-01-16T14:17:14.115Z,93.00
2024-01-16T14:19:42.694Z,93.10
2024-01-16T14:22:11.234Z,93.20
2024-01-16T14:24:39.911Z,93.20
2024-01-16T14:27:09.168Z,93.20
2024-01-16T14:29:42.072Z,93.20
2024-01-16T14:32:10.482Z,93.10
2024-01-16T14:34:38.916Z,93.10
2024-01-16T14:37:07.786Z,93.10
2024-01-16T14:39:38.468Z,93.20
2024-01-16T14:42:07.479Z,93.40
2024-01-16T14:44:45.057Z,93.40
2024-01-16T14:47:13.430Z,93.30
2024-01-16T14:49:41.877Z,93.30
2024-01-16T14:52:10.276Z,93.30
2024-01-16T14:54:38.705Z,93.30
2024-01-16T14:57:09.155Z,93.20
2024-01-16T14:59:37.553Z,93.30
2024-01-16T15:02:14.645Z,93.40
2024-01-16T15:04:47.413Z,93.50
2024-01-16T15:07:17.614Z,93.60
2024-01-16T15:09:46.032Z,93.60
2024-01-16T15:12:15.791Z,93.60
2024-01-16T15:14:44.205Z,93.60
2024-01-16T15:17:12.808Z,93.50
2024-01-16T15:19:41.252Z,93.50
2024-01-16T15:22:09.631Z,93.60
2024-01-16T15:24:38.039Z,93.60
2024-01-16T15:27:06.629Z,93.60
2024-01-16T15:29:35.021Z,93.70
2024-01-16T15:32:03.395Z,93.70
2024-01-16T15:34:31.760Z,94.10
2024-01-16T15:37:01.416Z,94.30
2024-01-16T15:39:30.106Z,94.30
2024-01-16T15:41:58.579Z,94.30
2024-01-16T15:44:27.015Z,94.10
2024-01-16T15:47:04.687Z,94.20
2024-01-16T15:49:34.377Z,94.10
2024-01-16T15:52:02.762Z,94.50
2024-01-16T15:54:32.796Z,94.80
2024-01-16T15:57:01.737Z,94.50
2024-01-16T15:59:30.372Z,94.50
2024-01-16T16:02:01.306Z,94.40
2024-01-16T16:04:31.420Z,94.30
2024-01-16T16:06:59.780Z,94.30
2024-01-16T16:09:28.520Z,94.30
2024-01-16T16:11:57.356Z,94.30
2024-01-16T16:14:26.008Z,94.40
2024-01-16T16:16:54.358Z,94.30
2024-01-16T16:19:22.993Z,94.30
2024-01-16T16:21:52.931Z,94.30
2024-01-16T16:24:21.306Z,94.30
2024-01-16T16:26:49.849Z,94.30
2024-01-16T16:29:18.345Z,94.30
2024-01-16T16:31:46.774Z,94.20
2024-01-16T16:34:20.521Z,94.10
2024-01-16T16:36:48.973Z,93.70
2024-01-16T16:39:19.286Z,93.60
2024-01-16T16:41:48.774Z,93.80
2024-01-16T16:44:17.278Z,93.70
2024-01-16T16:46:45.669Z,93.60
2024-01-16T16:49:14.094Z,93.50
2024-01-16T16:51:44.128Z,93.40
2024-01-16T16:54:13.493Z,93.20
2024-01-16T16:56:46.586Z,93.20
2024-01-16T16:59:14.887Z,93.10
2024-01-16T17:01:43.249Z,93.20
2024-01-16T17:04:11.993Z,93.30
2024-01-16T17:06:40.908Z,93.20
2024-01-16T17:09:09.389Z,93.10
2024-01-16T17:11:41.554Z,93.50
2024-01-16T17:14:10.021Z,93.30
2024-01-16T17:16:38.352Z,93.20
2024-01-16T17:19:06.746Z,93.20
2024-01-16T17:21:35.089Z,93.20
2024-01-16T17:24:03.645Z,93.20
2024-01-16T17:26:32.195Z,93.20
2024-01-16T17:29:03.078Z,93.10
2024-01-16T17:31:31.787Z,93.20
2024-01-16T17:34:00.346Z,93.20
2024-01-16T17:36:30.696Z,93.00
2024-01-16T17:39:02.120Z,92.80
2024-01-16T17:41:31.665Z,92.80
2024-01-16T17:44:00.631Z,92.70
2024-01-16T17:46:28.973Z,92.70
2024-01-16T17:48:58.682Z,92.80
2024-01-16T17:51:27.729Z,92.70
2024-01-16T17:53:56.107Z,92.80
2024-01-16T17:56:28.027Z,92.70
2024-01-16T17:58:56.371Z,92.70
2024-01-16T18:01:24.756Z,92.70
2024-01-16T18:03:54.084Z,92.70
2024-01-16T18:06:24.070Z,92.70
2024-01-16T18:08:55.675Z,92.70
2024-01-16T18:11:24.127Z,92.70
2024-01-16T18:13:52.489Z,92.70
2024-01-16T18:16:36.185Z,92.70
2024-01-16T18:19:21.720Z,92.80
2024-01-16T18:21:54.350Z,92.70
2024-01-16T18:24:23.081Z,92.80
2024-01-16T18:26:52.272Z,92.70
2024-01-16T18:29:24.352Z,92.80
2024-01-16T18:31:52.693Z,92.80
2024-01-16T18:34:22.832Z,93.10
2024-01-16T18:36:58.049Z,92.70
2024-01-16T18:39:27.888Z,93.10
2024-01-16T18:41:56.304Z,92.90
2024-01-16T18:44:25.008Z,92.60
2024-01-16T18:46:53.687Z,92.50
2024-01-16T18:49:22.209Z,92.50
2024-01-16T18:51:50.621Z,92.80
2024-01-16T18:54:19.031Z,92.80
2024-01-16T18:56:47.955Z,93.10
2024-01-16T18:59:16.314Z,93.10
2024-01-16T19:01:46.569Z,92.60
2024-01-16T19:04:19.415Z,92.50
2024-01-16T19:06:49.934Z,92.30
2024-01-16T19:09:20.192Z,92.20
2024-01-16T19:11:55.587Z,92.10
2024-01-16T19:14:24.126Z,92.20
2024-01-16T19:16:52.533Z,92.40
2024-01-16T19:19:23.001Z,92.30
2024-01-16T19:21:52.348Z,92.30
2024-01-16T19:24:20.836Z,92.70
2024-01-16T19:26:50.290Z,92.40
2024-01-16T19:29:21.856Z,92.40
2024-01-16T19:31:50.487Z,92.50
2024-01-16T19:34:19.076Z,92.50
2024-01-16T19:36:54.446Z,92.60
2024-01-16T19:39:23.397Z,92.70
2024-01-16T19:41:51.802Z,92.70
2024-01-16T19:44:20.308Z,92.70
2024-01-16T19:46:50.043Z,92.70
2024-01-16T19:49:19.236Z,92.70
2024-01-16T19:51:47.745Z,92.80
2024-01-16T19:54:16.279Z,92.80
2024-01-16T19:56:44.840Z,92.70
2024-01-16T19:59:13.322Z,92.70
2024-01-16T20:01:41.978Z,92.70
2024-01-16T20:04:10.406Z,92.80
2024-01-16T20:06:39.110Z,92.80
2024-01-16T20:09:08.397Z,92.80
2024-01-16T20:11:37.444Z,92.80
2024-01-16T20:14:06.536Z,92.80
2024-01-16T20:16:35.329Z,92.80
2024-01-16T20:19:04.081Z,92.70
2024-01-16T20:21:32.749Z,92.70
2024-01-16T20:24:03.214Z,92.70
2024-01-16T20:26:31.818Z,92.70
2024-01-16T20:29:00.297Z,92.70
2024-01-16T20:31:28.966Z,92.70
2024-01-16T20:33:58.030Z,92.70
2024-01-16T20:36:26.614Z,92.70
2024-01-16T20:38:55.149Z,92.70
2024-01-16T20:41:24.546Z,92.70
2024-01-16T20:43:53.032Z,92.70
2024-01-16T20:46:21.500Z,92.70
2024-01-16T20:48:50.929Z,92.70
2024-01-16T20:51:19.934Z,92.80
2024-01-16T20:53:48.645Z,92.70
2024-01-16T20:56:17.483Z,92.80
2024-01-16T20:58:45.859Z,92.80
2024-01-16T21:01:14.406Z,92.80
2024-01-16T21:03:42.776Z,92.80
2024-01-16T21:06:11.308Z,92.80
2024-01-16T21:08:40.687Z,92.80
2024-01-16T21:11:09.163Z,92.80
2024-01-16T21:13:37.544Z,92.80
2024-01-16T21:16:08.813Z,92.80
2024-01-16T21:18:40.353Z,92.80
2024-01-16T21:21:08.808Z,92.80
2024-01-16T21:23:37.899Z,92.80
2024-01-16T21:26:12.688Z,92.80
2024-01-16T21:28:41.386Z,92.80
2024-01-16T21:31:09.912Z,92.70
2024-01-16T21:33:38.560Z,92.70
2024-01-16T21:36:07.335Z,92.70
2024-01-16T21:38:35.719Z,92.70
2024-01-16T21:41:04.287Z,92.70
2024-01-16T21:43:32.652Z,92.70
2024-01-16T21:46:01.093Z,92.60
2024-01-16T21:48:33.048Z,92.60
2024-01-16T21:51:02.684Z,92.50
2024-01-16T21:53:31.315Z,92.50
2024-01-16T21:55:59.703Z,92.50
2024-01-16T21:58:28.736Z,92.50
2024-01-16T22:00:57.844Z,92.40
2024-01-16T22:03:26.189Z,92.40
2024-01-16T22:05:54.668Z,92.40
2024-01-16T22:08:23.098Z,92.40
2024-01-16T22:10:51.726Z,92.40
2024-01-16T22:13:20.605Z,92.30
2024-01-16T22:15:50.173Z,92.30
2024-01-16T22:18:19.488Z,92.20
2024-01-16T22:20:48.434Z,92.30
2024-01-16T22:23:17.324Z,92.20
2024-01-16T22:25:45.783Z,92.20
2024-01-16T22:28:14.751Z,92.20
2024-01-16T22:30:43.215Z,92.10
2024-01-16T22:33:11.703Z,92.10
2024-01-16T22:35:40.580Z,92.20
2024-01-16T22:38:08.937Z,92.10
2024-01-16T22:40:38.869Z,92.10
2024-01-16T22:43:07.722Z,92.20
2024-01-16T22:45:36.076Z,92.10
2024-01-16T22:48:07.523Z,92.00
2024-01-16T22:50:36.522Z,92.00
2024-01-16T22:53:05.283Z,92.00
2024-01-16T22:55:33.670Z,92.00
2024-01-16T22:58:04.965Z,92.10
2024-01-16T23:00:34.036Z,92.00
2024-01-16T23:03:02.487Z,91.90
2024-01-16T23:05:30.950Z,91.90
2024-01-16T23:07:59.349Z,91.80
2024-01-16T23:10:28.085Z,91.90
2024-01-16T23:12:56.679Z,91.90
2024-01-16T23:15:25.011Z,91.80
2024-01-16T23:17:53.525Z,91.60
2024-01-16T23:20:22.737Z,91.70
2024-01-16T23:22:51.195Z,91.70
2024-01-16T23:25:20.166Z,91.50
2024-01-16T23:27:51.671Z,91.30
2024-01-16T23:30:23.010Z,91.30
2024-01-16T23:32:51.692Z,91.30
2024-01-16T23:35:20.153Z,91.40
2024-01-16T23:37:50.720Z,91.20
2024-01-16T23:40:20.789Z,91.10
2024-01-16T23:42:49.288Z,91.10
2024-01-16T23:45:24.153Z,91.10
2024-01-16T23:47:58.927Z,91.10
2024-01-16T23:50:27.821Z,91.00
2024-01-16T23:52:56.202Z,91.00
2024-01-16T23:55:24.940Z,91.00
2024-01-16T23:57:53.699Z,90.80
